Time;durP1;ratioP1;P1;durP2;ratioP2;P2;SDS_P1;SDS_P2;PMS_P1;PMS_P2;Temp;Humidity;BMP_temperature;BMP_pressure;BME280_temperature;BME280_humidity;BME280_pressure;Samples;Min_cycle;Max_cycle;Signal;HPM_P1;HPM_P2
2023/12/14 00:00:40;;;;;;;0.57;0.30;;;;;;;;;;5038012;28;20411;-82
2023/12/14 00:03:06;;;;;;;0.20;0.20;;;;;;;;;;5044049;28;20044;-83
2023/12/14 00:05:32;;;;;;;0.85;0.60;;;;;;;;;;5041187;28;20080;-83
2023/12/14 00:07:58;;;;;;;1.35;0.70;;;;;;;;;;5039399;28;20021;-83
2023/12/14 00:10:24;;;;;;;0.50;0.50;;;;;;;;;;5045963;28;20022;-83
2023/12/14 00:12:50;;;;;;;0.88;0.40;;;;;;;;;;5048752;28;20048;-82
2023/12/14 00:15:17;;;;;;;0.20;0.20;;;;;;;;;;5043799;28;20029;-82
2023/12/14 00:17:43;;;;;;;0.20;0.20;;;;;;;;;;5049380;28;20037;-82
2023/12/14 00:20:09;;;;;;;0.10;0.10;;;;;;;;;;5036579;28;20044;-82
2023/12/14 00:22:35;;;;;;;0.32;0.25;;;;;;;;;;5038738;28;20021;-84
2023/12/14 00:25:03;;;;;;;0.70;0.40;;;;;;;;;;5041586;28;20041;-83
2023/12/14 00:27:29;;;;;;;0.65;0.30;;;;;;;;;;5038970;28;20033;-83
2023/12/14 00:29:55;;;;;;;0.25;0.22;;;;;;;;;;5037716;28;20022;-83
2023/12/14 00:32:21;;;;;;;0.28;0.28;;;;;;;;;;5039453;28;20037;-84
2023/12/14 00:34:48;;;;;;;0.30;0.30;;;;;;;;;;5041337;28;20408;-82
2023/12/14 00:37:14;;;;;;;0.57;0.30;;;;;;;;;;5037611;28;20055;-83
2023/12/14 00:39:43;;;;;;;0.57;0.40;;;;;;;;;;5044278;28;20037;-82
2023/12/14 00:42:09;;;;;;;0.32;0.22;;;;;;;;;;5039469;28;20045;-83
2023/12/14 00:44:35;;;;;;;0.88;0.43;;;;;;;;;;5041733;28;20025;-83
2023/12/14 00:47:02;;;;;;;0.40;0.40;;;;;;;;;;5044300;28;20029;-82
2023/12/14 00:49:31;;;;;;;1.10;0.40;;;;;;;;;;5044933;28;20021;-83
2023/12/14 00:51:58;;;;;;;0.80;0.30;;;;;;;;;;5041912;28;20476;-82
2023/12/14 00:54:24;;;;;;;0.52;0.32;;;;;;;;;;5044299;28;20026;-83
2023/12/14 00:56:50;;;;;;;0.40;0.40;;;;;;;;;;5055031;28;20070;-83
2023/12/14 00:59:16;;;;;;;0.63;0.63;;;;;;;;;;5057184;28;20068;-82
2023/12/14 01:01:43;;;;;;;2.50;0.45;;;;;;;;;;5038262;28;20029;-82
2023/12/14 01:04:09;;;;;;;0.20;0.20;;;;;;;;;;5040099;28;20044;-82
2023/12/14 01:06:35;;;;;;;0.40;0.40;;;;;;;;;;5037710;28;20029;-84
2023/12/14 01:09:01;;;;;;;0.50;0.50;;;;;;;;;;5037676;28;20029;-83
2023/12/14 01:11:27;;;;;;;0.47;0.47;;;;;;;;;;5038699;28;20085;-83
2023/12/14 01:13:53;;;;;;;0.38;0.38;;;;;;;;;;5036262;28;20030;-83
2023/12/14 01:16:19;;;;;;;0.32;0.32;;;;;;;;;;5040668;28;20091;-83
2023/12/14 01:18:45;;;;;;;0.80;0.50;;;;;;;;;;5042341;28;20029;-81
2023/12/14 01:21:12;;;;;;;0.40;0.40;;;;;;;;;;5042534;28;20025;-83
2023/12/14 01:23:39;;;;;;;0.60;0.43;;;;;;;;;;5040984;28;20028;-83
2023/12/14 01:26:05;;;;;;;0.70;0.70;;;;;;;;;;5039035;28;20026;-83
2023/12/14 01:28:31;;;;;;;0.40;0.40;;;;;;;;;;5038989;28;20401;-83
2023/12/14 01:30:57;;;;;;;0.45;0.38;;;;;;;;;;5037807;28;20017;-83
2023/12/14 01:33:23;;;;;;;0.57;0.57;;;;;;;;;;5047031;28;20440;-82
2023/12/14 01:35:49;;;;;;;0.50;0.50;;;;;;;;;;5041568;28;20518;-83
2023/12/14 01:38:15;;;;;;;0.45;0.45;;;;;;;;;;5041483;28;20029;-83
2023/12/14 01:40:41;;;;;;;0.35;0.35;;;;;;;;;;5052115;28;20040;-84
2023/12/14 01:43:11;;;;;;;0.60;0.60;;;;;;;;;;5047958;28;20053;-82
2023/12/14 01:45:37;;;;;;;0.40;0.40;;;;;;;;;;5053280;28;20017;-82
2023/12/14 01:48:04;;;;;;;1.67;0.25;;;;;;;;;;5053919;28;20033;-82
2023/12/14 01:50:30;;;;;;;0.60;0.47;;;;;;;;;;5053903;28;20025;-82
2023/12/14 01:52:56;;;;;;;0.55;0.45;;;;;;;;;;5052917;28;20018;-82
2023/12/14 01:55:22;;;;;;;0.30;0.30;;;;;;;;;;5059538;28;20025;-83
2023/12/14 01:57:48;;;;;;;0.30;0.30;;;;;;;;;;5050998;28;20072;-82
2023/12/14 02:00:20;;;;;;;0.40;0.40;;;;;;;;;;5047097;28;20031;-83
2023/12/14 02:02:46;;;;;;;0.50;0.30;;;;;;;;;;5040484;28;20073;-83
2023/12/14 02:05:12;;;;;;;0.30;0.30;;;;;;;;;;5048631;28;20033;-82
2023/12/14 02:07:38;;;;;;;0.20;0.20;;;;;;;;;;5041708;28;20476;-82
2023/12/14 02:10:05;;;;;;;0.30;0.30;;;;;;;;;;5043173;28;20448;-82
2023/12/14 02:12:33;;;;;;;0.70;0.50;;;;;;;;;;5040528;28;20333;-82
2023/12/14 02:14:59;;;;;;;0.30;0.30;;;;;;;;;;5040458;28;20049;-82
2023/12/14 02:17:25;;;;;;;0.17;0.17;;;;;;;;;;5040372;28;20029;-83
2023/12/14 02:19:51;;;;;;;0.10;0.10;;;;;;;;;;5041400;28;20104;-82
2023/12/14 02:22:18;;;;;;;0.30;0.22;;;;;;;;;;5043977;28;20029;-82
2023/12/14 02:24:45;;;;;;;0.30;0.30;;;;;;;;;;5043691;28;20417;-83
2023/12/14 02:27:11;;;;;;;0.20;0.20;;;;;;;;;;5042071;28;20055;-83
2023/12/14 02:29:37;;;;;;;0.20;0.20;;;;;;;;;;5045615;28;20028;-83
2023/12/14 02:32:03;;;;;;;0.47;0.20;;;;;;;;;;5044979;28;20101;-82
2023/12/14 02:34:29;;;;;;;0.28;0.28;;;;;;;;;;5041064;28;20031;-82
2023/12/14 02:36:55;;;;;;;0.40;0.40;;;;;;;;;;5041951;28;20049;-83
2023/12/14 02:39:21;;;;;;;0.45;0.45;;;;;;;;;;5042195;28;20052;-83
2023/12/14 02:41:47;;;;;;;0.30;0.22;;;;;;;;;;5045322;28;20025;-82
2023/12/14 02:44:13;;;;;;;0.57;0.57;;;;;;;;;;5047619;28;20432;-83
2023/12/14 02:46:39;;;;;;;0.75;0.57;;;;;;;;;;5049658;28;20407;-82
2023/12/14 02:49:05;;;;;;;0.30;0.30;;;;;;;;;;5047087;28;20017;-81
2023/12/14 02:51:31;;;;;;;0.95;0.70;;;;;;;;;;5043365;28;20032;-81
2023/12/14 02:53:57;;;;;;;0.85;0.80;;;;;;;;;;5056595;28;20025;-82
2023/12/14 02:56:24;;;;;;;2.00;1.08;;;;;;;;;;5058220;28;20033;-82
2023/12/14 02:58:51;;;;;;;0.80;0.80;;;;;;;;;;5071337;28;20020;-83
2023/12/14 03:01:24;;;;;;;1.10;1.10;;;;;;;;;;5058690;28;20021;-82
2023/12/14 03:03:50;;;;;;;1.45;1.35;;;;;;;;;;5059064;28;20021;-82
2023/12/14 03:06:16;;;;;;;1.00;0.98;;;;;;;;;;5057042;28;20084;-84
2023/12/14 03:08:42;;;;;;;1.42;1.33;;;;;;;;;;5051234;28;20073;-82
2023/12/14 03:11:08;;;;;;;1.30;1.20;;;;;;;;;;5044440;28;20034;-83
2023/12/14 03:13:34;;;;;;;1.85;1.40;;;;;;;;;;5041730;28;20124;-82
2023/12/14 03:16:00;;;;;;;1.58;1.45;;;;;;;;;;5049081;28;20025;-82
2023/12/14 03:18:26;;;;;;;1.92;1.42;;;;;;;;;;5039613;28;20408;-82
2023/12/14 03:20:52;;;;;;;1.75;1.40;;;;;;;;;;5042113;28;20022;-83
2023/12/14 03:23:18;;;;;;;1.40;1.30;;;;;;;;;;5039645;28;20017;-83
2023/12/14 03:25:44;;;;;;;1.08;1.00;;;;;;;;;;5046031;28;20025;-83
2023/12/14 03:28:10;;;;;;;2.90;1.20;;;;;;;;;;5049034;28;20555;-83
2023/12/14 03:30:36;;;;;;;0.85;0.85;;;;;;;;;;5042540;28;20061;-84
2023/12/14 03:33:02;;;;;;;1.40;1.30;;;;;;;;;;5046802;28;20017;-83
2023/12/14 03:35:28;;;;;;;1.75;1.25;;;;;;;;;;5047008;28;20101;-82
2023/12/14 03:37:54;;;;;;;1.23;1.23;;;;;;;;;;5057286;28;20013;-81
2023/12/14 03:40:20;;;;;;;2.10;1.75;;;;;;;;;;5050604;28;20041;-82
2023/12/14 03:42:46;;;;;;;1.23;1.10;;;;;;;;;;5052514;28;20040;-82
2023/12/14 03:45:12;;;;;;;1.70;1.30;;;;;;;;;;5060931;28;20033;-82
2023/12/14 03:47:38;;;;;;;1.75;1.65;;;;;;;;;;5050973;28;20036;-83
2023/12/14 03:50:05;;;;;;;1.92;1.75;;;;;;;;;;5057801;28;20031;-83
2023/12/14 03:52:31;;;;;;;1.40;1.30;;;;;;;;;;5056641;28;20025;-82
2023/12/14 03:54:57;;;;;;;1.20;1.10;;;;;;;;;;5059396;28;20096;-82
2023/12/14 03:57:23;;;;;;;1.42;1.33;;;;;;;;;;5055066;28;20093;-80
2023/12/14 03:59:49;;;;;;;1.17;1.17;;;;;;;;;;5057695;28;20022;-81
2023/12/14 04:02:15;;;;;;;1.00;1.00;;;;;;;;;;5064253;28;20044;-81
2023/12/14 04:04:41;;;;;;;1.20;1.20;;;;;;;;;;5056110;28;20040;-81
2023/12/14 04:07:07;;;;;;;1.40;1.30;;;;;;;;;;5056122;28;20034;-82
2023/12/14 04:09:33;;;;;;;1.23;1.15;;;;;;;;;;5056285;28;20037;-82
2023/12/14 04:11:59;;;;;;;1.23;1.13;;;;;;;;;;5056664;28;20061;-81
2023/12/14 04:14:25;;;;;;;1.05;1.05;;;;;;;;;;5044694;28;20052;-83
2023/12/14 04:16:51;;;;;;;1.10;1.00;;;;;;;;;;5043483;28;20075;-82
2023/12/14 04:19:17;;;;;;;1.20;1.15;;;;;;;;;;5042540;28;20061;-81
2023/12/14 04:21:43;;;;;;;2.25;1.42;;;;;;;;;;5042621;28;20033;-81
2023/12/14 04:24:14;;;;;;;2.35;1.40;;;;;;;;;;5046900;28;20395;-79
2023/12/14 04:26:40;;;;;;;1.30;1.20;;;;;;;;;;5050575;28;20080;-80
2023/12/14 04:29:07;;;;;;;0.90;0.90;;;;;;;;;;5041168;28;20123;-80
2023/12/14 04:31:34;;;;;;;1.40;1.20;;;;;;;;;;5040368;28;20101;-79
2023/12/14 04:34:00;;;;;;;1.40;0.82;;;;;;;;;;5056840;28;20036;-78
2023/12/14 04:36:28;;;;;;;1.35;1.25;;;;;;;;;;5064352;28;20307;-79
2023/12/14 04:38:57;;;;;;;1.25;1.15;;;;;;;;;;5054586;28;20033;-79
2023/12/14 04:41:25;;;;;;;0.70;0.70;;;;;;;;;;5050224;28;20037;-78
2023/12/14 04:43:51;;;;;;;1.17;1.08;;;;;;;;;;5055661;28;20030;-81
2023/12/14 04:46:17;;;;;;;1.00;0.85;;;;;;;;;;5048947;28;20064;-78
2023/12/14 04:48:45;;;;;;;2.63;1.33;;;;;;;;;;5041806;28;20101;-78
2023/12/14 04:51:12;;;;;;;1.73;0.88;;;;;;;;;;5039067;28;20021;-79
2023/12/14 04:53:38;;;;;;;1.10;0.90;;;;;;;;;;5039197;28;20021;-81
2023/12/14 04:56:04;;;;;;;0.75;0.75;;;;;;;;;;5037898;28;20021;-78
2023/12/14 04:58:30;;;;;;;0.80;0.80;;;;;;;;;;5037179;28;20029;-78
2023/12/14 05:00:57;;;;;;;1.75;0.90;;;;;;;;;;5037384;28;20029;-78
2023/12/14 05:03:23;;;;;;;0.70;0.70;;;;;;;;;;5047007;28;20362;-77
2023/12/14 05:05:49;;;;;;;0.80;0.80;;;;;;;;;;5039102;28;20034;-78
2023/12/14 05:08:15;;;;;;;0.70;0.70;;;;;;;;;;5038626;28;20021;-78
2023/12/14 05:10:41;;;;;;;0.85;0.40;;;;;;;;;;5037704;28;20021;-79
2023/12/14 05:13:07;;;;;;;0.57;0.57;;;;;;;;;;5037736;28;20033;-79
2023/12/14 05:15:33;;;;;;;0.60;0.60;;;;;;;;;;5039550;28;20118;-79
2023/12/14 05:17:59;;;;;;;2.05;0.35;;;;;;;;;;5038238;28;20032;-78
2023/12/14 05:20:25;;;;;;;0.32;0.32;;;;;;;;;;5036818;28;20021;-79
2023/12/14 05:22:51;;;;;;;0.35;0.35;;;;;;;;;;5047009;28;20048;-79
2023/12/14 05:25:17;;;;;;;0.77;0.70;;;;;;;;;;5051107;28;20068;-80
2023/12/14 05:27:43;;;;;;;1.17;0.70;;;;;;;;;;5061344;28;20063;-78
2023/12/14 05:30:09;;;;;;;1.80;0.60;;;;;;;;;;5059739;28;20033;-78
2023/12/14 05:32:35;;;;;;;2.05;0.88;;;;;;;;;;5058880;28;20057;-79
2023/12/14 05:35:02;;;;;;;0.60;0.60;;;;;;;;;;5057460;28;20014;-78
2023/12/14 05:37:28;;;;;;;0.93;0.80;;;;;;;;;;5058591;28;20021;-79
2023/12/14 05:39:54;;;;;;;1.15;0.93;;;;;;;;;;5059091;28;20048;-79
2023/12/14 05:42:20;;;;;;;2.53;0.73;;;;;;;;;;5048693;28;20043;-80
2023/12/14 05:44:46;;;;;;;1.00;0.70;;;;;;;;;;5045429;28;20137;-78
2023/12/14 05:47:12;;;;;;;1.20;0.93;;;;;;;;;;5039669;28;20032;-79
2023/12/14 05:49:42;;;;;;;3.05;0.90;;;;;;;;;;5041188;28;20026;-79
2023/12/14 05:52:08;;;;;;;1.05;0.73;;;;;;;;;;5040482;28;20123;-78
2023/12/14 05:54:36;;;;;;;0.60;0.50;;;;;;;;;;5039385;28;20040;-80
2023/12/14 05:57:02;;;;;;;1.00;0.90;;;;;;;;;;5044691;28;20029;-79
2023/12/14 05:59:28;;;;;;;1.52;0.90;;;;;;;;;;5043165;28;20033;-79
2023/12/14 06:01:58;;;;;;;1.58;1.00;;;;;;;;;;5040416;28;20037;-79
2023/12/14 06:04:24;;;;;;;0.88;0.88;;;;;;;;;;5048057;28;20029;-80
2023/12/14 06:06:50;;;;;;;2.40;1.38;;;;;;;;;;5046924;28;20040;-80
2023/12/14 06:09:19;;;;;;;2.10;1.25;;;;;;;;;;5050162;28;20063;-80
2023/12/14 06:11:45;;;;;;;1.38;1.15;;;;;;;;;;5045484;28;20181;-80
2023/12/14 06:14:11;;;;;;;1.25;1.00;;;;;;;;;;5050933;28;20552;-80
2023/12/14 06:16:37;;;;;;;1.38;1.27;;;;;;;;;;5053248;28;20464;-78
2023/12/14 06:19:03;;;;;;;1.40;1.30;;;;;;;;;;5051046;28;20029;-79
2023/12/14 06:21:29;;;;;;;2.20;1.38;;;;;;;;;;5044128;28;20052;-79
2023/12/14 06:26:59;;;;;;;4.18;2.47;;;;;;;;;;5036362;28;20068;-76
2023/12/14 06:29:25;;;;;;;2.45;1.55;;;;;;;;;;5032419;28;20049;-77
2023/12/14 06:31:51;;;;;;;2.78;1.60;;;;;;;;;;5056031;28;20052;-76
2023/12/14 06:34:17;;;;;;;1.52;1.42;;;;;;;;;;5038596;28;20018;-79
2023/12/14 06:36:45;;;;;;;1.58;1.48;;;;;;;;;;5052139;28;20032;-77
2023/12/14 06:39:11;;;;;;;2.55;1.70;;;;;;;;;;5038556;28;20029;-75
2023/12/14 06:41:38;;;;;;;2.15;1.58;;;;;;;;;;5037708;28;20044;-76
2023/12/14 06:47:08;;;;;;;1.45;1.35;;;;;;;;;;5032909;28;20044;-75
2023/12/14 06:49:34;;;;;;;2.25;1.30;;;;;;;;;;5033732;28;20060;-76
2023/12/14 06:52:01;;;;;;;1.50;1.40;;;;;;;;;;5036528;28;20061;-77
2023/12/14 06:54:27;;;;;;;1.17;1.08;;;;;;;;;;5031536;28;20418;-75
2023/12/14 06:56:53;;;;;;;1.35;1.25;;;;;;;;;;5035101;28;20487;-75
2023/12/14 06:59:19;;;;;;;2.65;1.60;;;;;;;;;;5034808;28;20030;-76
2023/12/14 07:01:45;;;;;;;1.48;1.38;;;;;;;;;;5036811;28;20377;-79
2023/12/14 07:04:11;;;;;;;2.70;1.30;;;;;;;;;;5040558;28;20539;-76
2023/12/14 07:06:37;;;;;;;2.72;1.63;;;;;;;;;;5036878;28;20040;-78
2023/12/14 07:09:03;;;;;;;2.08;1.83;;;;;;;;;;5038701;28;20022;-78
2023/12/14 07:11:30;;;;;;;2.35;1.73;;;;;;;;;;5040135;28;20026;-78
2023/12/14 07:13:56;;;;;;;2.83;1.40;;;;;;;;;;5043468;28;20095;-77
2023/12/14 07:16:22;;;;;;;3.53;1.42;;;;;;;;;;5038641;28;20033;-77
2023/12/14 07:18:48;;;;;;;1.08;0.98;;;;;;;;;;5039079;28;20373;-78
2023/12/14 07:21:14;;;;;;;1.55;1.45;;;;;;;;;;5045841;28;20006;-77
2023/12/14 07:23:40;;;;;;;0.90;0.90;;;;;;;;;;5051075;28;20013;-77
2023/12/14 07:26:06;;;;;;;0.80;0.80;;;;;;;;;;5049125;28;20052;-77
2023/12/14 07:28:32;;;;;;;1.33;1.17;;;;;;;;;;5054569;28;20116;-76
2023/12/14 07:30:58;;;;;;;1.50;1.00;;;;;;;;;;5053374;28;20056;-76
2023/12/14 07:33:25;;;;;;;2.08;1.55;;;;;;;;;;5052435;22;20082;-77
2023/12/14 07:35:51;;;;;;;1.40;1.30;;;;;;;;;;4994810;28;20122;-76
2023/12/14 07:38:17;;;;;;;2.53;1.58;;;;;;;;;;5003138;28;20034;-77
2023/12/14 07:40:43;;;;;;;2.45;1.90;;;;;;;;;;4995585;28;20518;-75
2023/12/14 07:43:09;;;;;;;2.65;1.98;;;;;;;;;;4993299;28;20110;-77
2023/12/14 07:45:35;;;;;;;6.18;2.88;;;;;;;;;;5000584;28;20034;-77
2023/12/14 07:48:02;;;;;;;4.45;2.80;;;;;;;;;;4986075;28;20054;-76
2023/12/14 07:50:28;;;;;;;4.07;2.85;;;;;;;;;;4995516;28;20030;-76
2023/12/14 07:52:54;;;;;;;4.57;3.20;;;;;;;;;;5010350;28;20437;-76
2023/12/14 07:55:20;;;;;;;5.28;3.50;;;;;;;;;;4996419;28;20066;-77
2023/12/14 07:57:47;;;;;;;4.93;3.38;;;;;;;;;;5012246;28;20102;-77
2023/12/14 08:00:13;;;;;;;8.23;5.32;;;;;;;;;;5014051;28;20042;-77
2023/12/14 08:02:39;;;;;;;5.45;4.03;;;;;;;;;;5009872;28;20031;-75
2023/12/14 08:05:05;;;;;;;4.93;3.50;;;;;;;;;;4992809;28;20022;-76
2023/12/14 08:07:32;;;;;;;5.40;3.40;;;;;;;;;;5009226;28;20088;-77
2023/12/14 08:09:58;;;;;;;2.78;2.30;;;;;;;;;;4994717;28;20117;-76
2023/12/14 08:12:24;;;;;;;3.72;2.60;;;;;;;;;;4994639;28;20023;-76
2023/12/14 08:14:51;;;;;;;2.88;2.60;;;;;;;;;;4993593;28;20101;-77
2023/12/14 08:17:17;;;;;;;3.70;3.03;;;;;;;;;;5000066;28;20045;-76
2023/12/14 08:19:43;;;;;;;3.65;2.55;;;;;;;;;;4993835;28;20392;-77
2023/12/14 08:22:12;;;;;;;4.05;2.92;;;;;;;;;;4993686;28;20109;-76
2023/12/14 08:24:41;;;;;;;2.58;2.05;;;;;;;;;;4993507;28;20116;-77
2023/12/14 08:27:07;;;;;;;3.17;2.10;;;;;;;;;;5009649;28;20549;-77
2023/12/14 08:29:33;;;;;;;3.08;2.00;;;;;;;;;;4993929;28;20472;-77
2023/12/14 08:32:00;;;;;;;3.38;2.15;;;;;;;;;;4994626;28;20026;-77
2023/12/14 08:34:27;;;;;;;5.20;3.25;;;;;;;;;;5014125;28;20483;-77
2023/12/14 08:36:53;;;;;;;4.20;3.25;;;;;;;;;;5000305;28;20025;-77
2023/12/14 08:39:19;;;;;;;3.03;2.72;;;;;;;;;;4999752;28;20026;-78
2023/12/14 08:41:46;;;;;;;6.57;4.43;;;;;;;;;;4998258;28;20140;-78
2023/12/14 08:44:13;;;;;;;5.00;3.80;;;;;;;;;;4999939;28;20442;-77
2023/12/14 08:46:39;;;;;;;4.95;4.10;;;;;;;;;;5014553;28;20034;-77
2023/12/14 08:49:05;;;;;;;6.03;3.80;;;;;;;;;;5008398;28;20086;-77
2023/12/14 08:51:31;;;;;;;4.82;3.70;;;;;;;;;;4987425;28;20570;-77
2023/12/14 08:53:57;;;;;;;4.30;3.10;;;;;;;;;;4992912;28;20030;-78
2023/12/14 08:56:23;;;;;;;5.10;4.03;;;;;;;;;;4993805;28;20080;-76
2023/12/14 08:58:49;;;;;;;5.63;3.22;;;;;;;;;;4993170;28;20097;-76
2023/12/14 09:01:22;;;;;;;3.17;2.53;;;;;;;;;;4993646;28;20042;-76
2023/12/14 09:03:49;;;;;;;3.67;2.92;;;;;;;;;;4994129;28;20062;-77
2023/12/14 09:06:16;;;;;;;5.43;3.40;;;;;;;;;;4994821;28;20042;-77
2023/12/14 09:08:42;;;;;;;3.95;3.28;;;;;;;;;;5010607;28;20072;-78
2023/12/14 09:11:09;;;;;;;4.47;3.13;;;;;;;;;;4993386;28;20030;-75
2023/12/14 09:13:35;;;;;;;3.95;2.60;;;;;;;;;;4994837;28;20150;-76
2023/12/14 09:16:01;;;;;;;2.95;2.65;;;;;;;;;;4998177;28;20021;-77
2023/12/14 09:18:27;;;;;;;4.43;2.85;;;;;;;;;;4993958;28;20081;-77
2023/12/14 09:20:53;;;;;;;3.80;2.90;;;;;;;;;;4993112;28;20022;-77
2023/12/14 09:23:19;;;;;;;2.83;2.33;;;;;;;;;;5007783;28;20136;-77
2023/12/14 09:25:46;;;;;;;3.53;2.50;;;;;;;;;;4995305;28;20041;-77
2023/12/14 09:28:12;;;;;;;3.05;2.78;;;;;;;;;;4994886;28;20041;-78
2023/12/14 09:30:38;;;;;;;2.95;2.55;;;;;;;;;;5006160;28;20152;-77
2023/12/14 09:33:04;;;;;;;2.70;2.50;;;;;;;;;;5005397;28;20564;-77
2023/12/14 09:35:30;;;;;;;4.10;2.80;;;;;;;;;;5004916;28;20040;-76
2023/12/14 09:37:56;;;;;;;2.92;2.03;;;;;;;;;;4996869;28;20025;-77
2023/12/14 09:40:23;;;;;;;2.80;2.20;;;;;;;;;;4995126;28;20030;-77
2023/12/14 09:42:49;;;;;;;3.22;2.00;;;;;;;;;;5010767;28;20029;-77
2023/12/14 09:45:17;;;;;;;2.70;2.40;;;;;;;;;;5003293;28;20466;-77
2023/12/14 09:47:45;;;;;;;4.47;2.20;;;;;;;;;;4993632;28;20438;-77
2023/12/14 09:50:11;;;;;;;1.77;1.67;;;;;;;;;;4993394;28;20018;-77
2023/12/14 09:52:37;;;;;;;1.73;1.60;;;;;;;;;;4994318;28;20034;-78
2023/12/14 09:55:04;;;;;;;2.08;1.65;;;;;;;;;;4995528;28;20134;-77
2023/12/14 09:57:30;;;;;;;1.55;1.38;;;;;;;;;;5001956;28;20042;-78
2023/12/14 09:59:56;;;;;;;1.67;1.38;;;;;;;;;;4996256;28;20030;-78
2023/12/14 10:02:29;;;;;;;2.22;1.80;;;;;;;;;;4993544;28;20041;-77
2023/12/14 10:04:56;;;;;;;4.35;1.73;;;;;;;;;;4992348;28;20033;-77
2023/12/14 10:07:22;;;;;;;2.53;2.00;;;;;;;;;;4992678;28;20062;-77
2023/12/14 10:09:49;;;;;;;1.95;1.25;;;;;;;;;;4992275;28;20030;-77
2023/12/14 10:12:16;;;;;;;1.60;1.50;;;;;;;;;;4993387;28;20070;-77
2023/12/14 10:14:42;;;;;;;3.97;1.98;;;;;;;;;;5002228;28;20023;-78
2023/12/14 10:17:16;;;;;;;2.15;1.52;;;;;;;;;;5000787;28;20045;-77
2023/12/14 10:19:46;;;;;;;1.83;1.73;;;;;;;;;;5005353;28;20026;-78
2023/12/14 10:22:49;;;;;;;2.05;1.42;;;;;;;;;;5005480;28;20026;-78
2023/12/14 10:25:15;;;;;;;3.35;1.98;;;;;;;;;;4998264;28;20059;-78
2023/12/14 10:27:41;;;;;;;2.83;1.88;;;;;;;;;;4999630;28;20034;-78
2023/12/14 10:30:11;;;;;;;1.70;1.40;;;;;;;;;;5000565;28;20034;-77
2023/12/14 10:32:38;;;;;;;1.50;1.40;;;;;;;;;;5004081;28;20041;-78
2023/12/14 10:35:04;;;;;;;1.38;1.27;;;;;;;;;;4999226;28;20049;-78
2023/12/14 10:37:31;;;;;;;3.10;1.98;;;;;;;;;;5006096;28;20034;-77
2023/12/14 10:39:58;;;;;;;1.70;1.60;;;;;;;;;;4998400;28;20065;-77
2023/12/14 10:42:24;;;;;;;1.98;1.75;;;;;;;;;;4996293;28;20077;-77
2023/12/14 10:44:55;;;;;;;1.42;1.33;;;;;;;;;;4995787;28;20446;-76
2023/12/14 10:47:21;;;;;;;3.45;2.30;;;;;;;;;;4995192;28;20035;-76
2023/12/14 10:49:50;;;;;;;2.63;2.35;;;;;;;;;;5005782;28;20125;-76
2023/12/14 10:52:17;;;;;;;3.72;2.30;;;;;;;;;;5004265;28;20046;-77
2023/12/14 10:54:44;;;;;;;7.75;2.90;;;;;;;;;;5011895;28;20500;-77
2023/12/14 10:57:10;;;;;;;2.92;2.13;;;;;;;;;;4999246;28;20053;-76
2023/12/14 10:59:36;;;;;;;2.22;1.85;;;;;;;;;;4998632;28;20058;-76
2023/12/14 11:02:09;;;;;;;2.17;1.95;;;;;;;;;;4996333;28;20042;-76
2023/12/14 11:04:56;;;;;;;2.28;2.05;;;;;;;;;;5019328;28;20117;-77
2023/12/14 11:08:03;;;;;;;2.22;2.03;;;;;;;;;;4992160;28;20485;-76
2023/12/14 11:10:36;;;;;;;3.13;2.08;;;;;;;;;;4931698;29;20032;-78
2023/12/14 11:13:04;;;;;;;1.65;1.55;;;;;;;;;;4932828;29;20083;-77
2023/12/14 11:15:30;;;;;;;4.82;2.47;;;;;;;;;;4961033;28;20126;-77
2023/12/14 11:18:12;;;;;;;3.13;2.08;;;;;;;;;;4995496;28;20157;-77
2023/12/14 11:20:57;;;;;;;2.40;2.20;;;;;;;;;;4998689;28;20030;-77
2023/12/14 11:23:26;;;;;;;3.88;2.15;;;;;;;;;;4995131;28;20045;-76
2023/12/14 11:25:53;;;;;;;2.28;2.08;;;;;;;;;;5009706;28;20050;-77
2023/12/14 11:28:20;;;;;;;2.83;2.00;;;;;;;;;;4996424;28;20067;-77
2023/12/14 11:30:46;;;;;;;3.45;1.70;;;;;;;;;;4997496;28;20576;-76
2023/12/14 11:33:13;;;;;;;2.40;1.48;;;;;;;;;;5007595;28;20302;-76
2023/12/14 11:35:39;;;;;;;3.17;1.70;;;;;;;;;;5020869;28;20099;-76
2023/12/14 11:38:13;;;;;;;2.20;2.00;;;;;;;;;;4997741;28;20515;-76
2023/12/14 11:40:45;;;;;;;4.82;1.90;;;;;;;;;;4997281;28;20030;-76
2023/12/14 11:43:11;;;;;;;1.55;1.23;;;;;;;;;;4993941;28;20057;-76
2023/12/14 11:45:38;;;;;;;1.63;1.52;;;;;;;;;;4996074;28;20049;-76
2023/12/14 11:48:07;;;;;;;2.40;1.70;;;;;;;;;;5011657;28;20026;-76
2023/12/14 11:50:33;;;;;;;1.73;1.63;;;;;;;;;;4999998;28;20018;-76
2023/12/14 11:53:06;;;;;;;2.78;2.13;;;;;;;;;;5023887;28;20029;-76
2023/12/14 11:55:33;;;;;;;1.48;1.38;;;;;;;;;;5011060;28;20073;-77
2023/12/14 11:57:59;;;;;;;1.75;1.38;;;;;;;;;;5008702;28;20026;-76
2023/12/14 12:00:26;;;;;;;2.15;1.70;;;;;;;;;;5009535;28;20101;-77
2023/12/14 12:02:53;;;;;;;2.90;1.60;;;;;;;;;;5014117;28;20062;-78
2023/12/14 12:05:19;;;;;;;1.23;1.13;;;;;;;;;;4997976;28;20350;-77
2023/12/14 12:07:46;;;;;;;4.28;1.60;;;;;;;;;;4999953;28;20073;-78
2023/12/14 12:10:12;;;;;;;1.48;1.38;;;;;;;;;;5005280;28;20021;-77
2023/12/14 12:12:38;;;;;;;4.32;1.60;;;;;;;;;;5012571;28;20033;-77
2023/12/14 12:15:05;;;;;;;2.58;1.73;;;;;;;;;;4996072;28;20045;-78
2023/12/14 12:17:37;;;;;;;1.83;1.27;;;;;;;;;;4998747;28;20035;-79
2023/12/14 12:20:05;;;;;;;1.20;1.10;;;;;;;;;;4998575;28;20034;-78
2023/12/14 12:22:31;;;;;;;2.50;1.02;;;;;;;;;;5012714;28;20358;-78
2023/12/14 12:24:58;;;;;;;6.88;1.58;;;;;;;;;;5015304;28;20257;-79
2023/12/14 12:27:24;;;;;;;6.18;2.17;;;;;;;;;;5011735;28;20034;-77
2023/12/14 12:29:53;;;;;;;1.75;1.42;;;;;;;;;;5011776;28;20023;-77
2023/12/14 12:32:19;;;;;;;2.08;1.40;;;;;;;;;;4997073;28;20044;-78
2023/12/14 12:34:45;;;;;;;2.15;1.52;;;;;;;;;;4998123;28;20034;-78
2023/12/14 12:37:11;;;;;;;3.10;1.23;;;;;;;;;;5012132;28;20026;-77
2023/12/14 12:39:38;;;;;;;2.00;1.10;;;;;;;;;;5010896;28;20062;-77
2023/12/14 12:42:05;;;;;;;2.42;1.10;;;;;;;;;;5011872;28;20041;-77
2023/12/14 12:44:31;;;;;;;1.58;0.90;;;;;;;;;;5004467;28;20050;-76
2023/12/14 12:46:58;;;;;;;1.60;0.80;;;;;;;;;;5012250;28;20050;-77
2023/12/14 12:49:25;;;;;;;0.77;0.77;;;;;;;;;;5004391;28;20019;-76
2023/12/14 12:51:51;;;;;;;1.73;1.08;;;;;;;;;;4999459;28;20456;-76
2023/12/14 12:54:18;;;;;;;0.80;0.80;;;;;;;;;;4995314;28;20031;-76
2023/12/14 12:56:44;;;;;;;0.77;0.77;;;;;;;;;;4994960;28;20049;-75
2023/12/14 12:59:10;;;;;;;1.50;0.95;;;;;;;;;;4995058;28;20027;-76
2023/12/14 13:01:36;;;;;;;1.20;1.10;;;;;;;;;;4997580;28;20041;-75
2023/12/14 13:04:04;;;;;;;1.75;0.95;;;;;;;;;;4995497;28;20492;-77
2023/12/14 13:06:30;;;;;;;1.13;1.02;;;;;;;;;;4994190;28;20370;-77
2023/12/14 13:08:56;;;;;;;2.22;1.08;;;;;;;;;;4994080;28;20026;-76
2023/12/14 13:11:22;;;;;;;1.73;1.05;;;;;;;;;;4994792;28;20457;-75
2023/12/14 13:13:49;;;;;;;2.20;1.15;;;;;;;;;;5002565;28;20038;-75
2023/12/14 13:16:16;;;;;;;1.40;1.30;;;;;;;;;;5005937;28;20098;-77
2023/12/14 13:18:43;;;;;;;1.13;1.02;;;;;;;;;;4993709;28;20029;-75
2023/12/14 13:21:09;;;;;;;2.30;1.30;;;;;;;;;;4993773;28;20452;-78
2023/12/14 13:23:36;;;;;;;1.75;1.05;;;;;;;;;;5006861;28;20027;-76
2023/12/14 13:26:03;;;;;;;2.00;1.05;;;;;;;;;;5001130;28;20046;-76
2023/12/14 13:28:29;;;;;;;2.17;1.30;;;;;;;;;;5018242;28;20030;-76
2023/12/14 13:30:55;;;;;;;3.65;1.90;;;;;;;;;;4996601;28;20046;-76
2023/12/14 13:33:21;;;;;;;1.80;1.52;;;;;;;;;;5011210;28;20030;-77
2023/12/14 13:35:47;;;;;;;1.75;1.20;;;;;;;;;;5006920;28;20018;-77
2023/12/14 13:38:13;;;;;;;4.00;1.45;;;;;;;;;;5003402;28;20022;-77
2023/12/14 13:40:39;;;;;;;1.67;1.10;;;;;;;;;;5002492;28;20030;-78
2023/12/14 13:43:10;;;;;;;3.30;1.27;;;;;;;;;;4995120;28;20038;-76
2023/12/14 13:45:36;;;;;;;1.20;1.02;;;;;;;;;;4996888;28;20030;-76
2023/12/14 13:48:02;;;;;;;4.13;1.25;;;;;;;;;;4994098;28;20075;-76
2023/12/14 13:50:28;;;;;;;1.50;0.93;;;;;;;;;;4997028;28;20030;-77
2023/12/14 13:52:54;;;;;;;1.98;1.40;;;;;;;;;;4998184;28;20034;-77
2023/12/14 13:55:22;;;;;;;2.88;1.00;;;;;;;;;;4996970;28;20110;-76
2023/12/14 13:57:48;;;;;;;1.05;0.80;;;;;;;;;;4998081;28;20044;-75
2023/12/14 14:00:16;;;;;;;1.15;1.05;;;;;;;;;;5013436;28;20389;-76
2023/12/14 14:02:42;;;;;;;1.45;0.90;;;;;;;;;;4997883;28;20480;-76
2023/12/14 14:05:08;;;;;;;1.15;0.95;;;;;;;;;;4997177;28;20046;-76
2023/12/14 14:07:34;;;;;;;1.55;0.88;;;;;;;;;;5014452;28;20030;-77
2023/12/14 14:10:00;;;;;;;0.98;0.90;;;;;;;;;;5013778;28;20114;-77
2023/12/14 14:12:28;;;;;;;1.60;1.08;;;;;;;;;;4998917;28;20037;-75
2023/12/14 14:14:54;;;;;;;2.50;0.80;;;;;;;;;;5011283;28;20033;-77
2023/12/14 14:17:20;;;;;;;1.48;1.08;;;;;;;;;;5012846;28;20089;-77
2023/12/14 14:19:46;;;;;;;2.00;1.13;;;;;;;;;;4997492;28;20489;-77
2023/12/14 14:22:12;;;;;;;2.00;1.00;;;;;;;;;;4998196;28;20030;-77
2023/12/14 14:24:38;;;;;;;2.15;1.95;;;;;;;;;;4997056;28;20080;-76
2023/12/14 14:27:05;;;;;;;1.20;1.10;;;;;;;;;;4997261;28;20044;-76
2023/12/14 14:29:31;;;;;;;1.08;0.98;;;;;;;;;;4998790;28;20051;-78
2023/12/14 14:31:57;;;;;;;3.45;1.50;;;;;;;;;;4998726;28;20077;-77
2023/12/14 14:34:23;;;;;;;2.42;1.25;;;;;;;;;;4997615;28;20366;-77
2023/12/14 14:36:50;;;;;;;5.55;1.58;;;;;;;;;;4998958;28;20208;-76
2023/12/14 14:39:18;;;;;;;1.38;1.02;;;;;;;;;;5001900;28;20477;-76
2023/12/14 14:41:45;;;;;;;1.58;1.10;;;;;;;;;;5002991;28;20018;-75
2023/12/14 14:44:11;;;;;;;1.20;1.10;;;;;;;;;;5001976;28;20018;-76
2023/12/14 14:46:38;;;;;;;2.45;1.98;;;;;;;;;;5001580;28;20038;-77